Contact Us

Gateway Facilities ULC is the premier aviation hub on Canada’s East Coast. Located at Halifax’s Stanfield International Airport, Gateway features Canada’s top FBO, exceptional executive jet charter, world-class refrigerated cargo services and unrivaled hangar storage and maintenance.

 

FBO

Phone: (902) 873-1900
Fax: (902) 873-1901
Air Freq: 129.1
Call-out phone: (902) 802-2459
Email: customerservice@yhzgateway.com

 


CARGO

Phone: (902) 873-3627
Email: cargo@yhzgateway.com

CHARTER

Phone: 902-873-3330
Fax: 902-484-5322
Email: info@maritimeair.com

 

 


Maintenance

Phone: (902) 873-4100
Cell: (902) 718-7913
Email: gasguys@eastlink.ca

 


Send us a message:

Name *
Name

 

OUR LOCATION

Halifax Stanfield International Airport (CYHZ)

645 Pratt and Whitney Drive
Goffs, Nova Scotia, B2T 0H4
Canada

Location: N 44 - 52.5⁰   
W 063 - 30.3⁰ - Var: 19 W
ELEV: 477 feet
Atlantic Time Zone:  -4 Winter-3 summer

 
gateway facilities

Common Frequencies

Tower/Clearance: 118.4
Terminal Frequency: 119.2
ATIS: 121.00
Halifax Ground: 121.9
Advisory Broadcast: 122.12
Gateway Facilities: 129.1


AVIATION WX

METAR
CYHZ 241200Z 25009KT 15SM FEW150 FEW280 19/12 A3017 RMK AC1CI2 AC TR SLP217 DENSITY ALT 800FT =
TAF
TAF CYHZ 241138Z 2412/2512 24008KT P6SM FEW150 BECMG 2414/2416 26010KT FM250000 22008KT P6SM SKC RMK NXT FCST BY 241500Z =
SR / SS: 09:28 / 23:03 UTC ( 2016-08-24)